Time;durP1;ratioP1;P1;durP2;ratioP2;P2;SDS_P1;SDS_P2;PMS_P1;PMS_P2;Temp;Humidity;BMP_temperature;BMP_pressure;BME280_temperature;BME280_humidity;BME280_pressure;Samples;Min_cycle;Max_cycle;Signal;HPM_P1;HPM_P2
2022/12/07 04:01:03;;;;;;;0.80;0.80;;;17.10;47.90;;;;;;5721314;23;46620;-60
2022/12/07 04:03:29;;;;;;;1.03;0.93;;;17.20;48.60;;;;;;4951001;28;45361;-61
2022/12/07 04:05:54;;;;;;;0.80;0.80;;;17.20;47.90;;;;;;4965057;28;45034;-58
2022/12/07 04:08:20;;;;;;;1.07;0.97;;;17.20;47.90;;;;;;4973687;28;45561;-58
2022/12/07 04:10:45;;;;;;;0.88;0.88;;;17.20;47.90;;;;;;4972898;28;46403;-57
2022/12/07 04:13:11;;;;;;;1.10;1.00;;;17.20;47.80;;;;;;4998568;28;45437;-59
2022/12/07 04:15:36;;;;;;;0.90;0.90;;;17.20;47.90;;;;;;4995427;28;45206;-57
2022/12/07 04:18:02;;;;;;;0.90;0.80;;;17.20;47.80;;;;;;4980793;28;44776;-59
2022/12/07 04:20:28;;;;;;;0.80;0.80;;;17.10;47.80;;;;;;4996175;28;48031;-58
2022/12/07 04:22:53;;;;;;;1.07;0.97;;;17.10;47.80;;;;;;5004492;28;45483;-59
2022/12/07 04:25:19;;;;;;;1.20;0.80;;;17.10;47.80;;;;;;4995967;28;45271;-57
2022/12/07 04:27:44;;;;;;;0.80;0.80;;;17.10;47.80;;;;;;4969952;28;45298;-60
2022/12/07 04:30:10;;;;;;;1.30;1.00;;;17.10;47.80;;;;;;4976846;28;45615;-59
2022/12/07 04:32:36;;;;;;;0.90;0.80;;;17.10;47.80;;;;;;5003839;28;45566;-58
2022/12/07 04:35:01;;;;;;;0.80;0.80;;;17.10;47.70;;;;;;5005886;28;44919;-58
2022/12/07 04:37:27;;;;;;;1.10;1.00;;;17.10;47.80;;;;;;5020661;28;45400;-58
2022/12/07 04:39:52;;;;;;;0.82;0.75;;;17.10;47.70;;;;;;4971195;28;46780;-60
2022/12/07 04:42:18;;;;;;;0.90;0.90;;;17.10;47.80;;;;;;4976981;28;45734;-59
2022/12/07 04:44:44;;;;;;;0.87;0.87;;;17.10;47.70;;;;;;4998394;28;45256;-59
2022/12/07 04:47:29;;;;;;;0.90;0.90;;;17.10;47.70;;;;;;4983102;28;45122;-59
2022/12/07 04:50:15;;;;;;;0.82;0.80;;;17.10;47.70;;;;;;4981719;28;46729;-59
2022/12/07 04:53:00;;;;;;;0.90;0.90;;;17.10;47.70;;;;;;4976173;28;44932;-59
2022/12/07 04:55:46;;;;;;;0.80;0.80;;;17.00;47.70;;;;;;4990854;28;45242;-58
2022/12/07 04:58:31;;;;;;;0.80;0.80;;;17.10;47.70;;;;;;4971737;28;45445;-59
2022/12/07 05:01:17;;;;;;;1.03;0.93;;;17.00;47.60;;;;;;4985908;28;46828;-58
2022/12/07 05:04:03;;;;;;;1.10;1.00;;;17.00;47.60;;;;;;4971773;28;46250;-59
2022/12/07 05:06:28;;;;;;;1.17;0.95;;;17.00;47.60;;;;;;4985354;28;45336;-58
2022/12/07 05:08:54;;;;;;;1.00;0.90;;;17.00;47.60;;;;;;5006483;28;45793;-59
2022/12/07 05:11:38;;;;;;;1.03;0.97;;;17.00;47.70;;;;;;5000880;28;45271;-59
2022/12/07 05:14:11;;;;;;;0.85;0.80;;;17.00;47.70;;;;;;5003021;28;44929;-59
2022/12/07 05:16:37;;;;;;;0.93;0.90;;;17.00;47.70;;;;;;4988273;28;44630;-58
2022/12/07 05:19:02;;;;;;;0.80;0.80;;;17.00;47.70;;;;;;5003640;28;45305;-59
2022/12/07 05:21:48;;;;;;;0.70;0.70;;;17.00;47.70;;;;;;4992400;28;46865;-57
2022/12/07 05:24:33;;;;;;;1.17;0.93;;;16.90;47.70;;;;;;4990222;28;45342;-59
2022/12/07 05:27:19;;;;;;;0.83;0.83;;;17.00;47.70;;;;;;4977227;28;45598;-58
2022/12/07 05:30:05;;;;;;;1.70;0.90;;;16.90;47.70;;;;;;4981766;28;45385;-60
2022/12/07 05:32:51;;;;;;;0.98;0.90;;;16.90;47.70;;;;;;4990139;28;46816;-58
2022/12/07 05:35:37;;;;;;;1.80;0.77;;;16.90;47.70;;;;;;4989473;28;45483;-59
2022/12/07 05:38:03;;;;;;;1.10;1.00;;;16.90;47.70;;;;;;5003054;28;45004;-59
2022/12/07 05:40:28;;;;;;;0.80;0.80;;;16.90;47.70;;;;;;4971597;28;44997;-59
2022/12/07 05:42:54;;;;;;;1.10;0.90;;;16.80;47.60;;;;;;4982353;28;45597;-60
2022/12/07 05:45:19;;;;;;;1.20;1.03;;;16.90;47.70;;;;;;5002109;28;45595;-60
2022/12/07 05:47:45;;;;;;;0.93;0.80;;;16.90;47.70;;;;;;4980565;28;45439;-57
2022/12/07 05:50:10;;;;;;;0.70;0.70;;;16.90;47.70;;;;;;5009649;28;46632;-58
2022/12/07 05:52:36;;;;;;;0.90;0.90;;;16.90;47.70;;;;;;4987315;28;45590;-57
2022/12/07 05:55:01;;;;;;;0.80;0.80;;;16.90;47.80;;;;;;5001179;28;45206;-59
2022/12/07 05:57:27;;;;;;;0.77;0.77;;;16.80;47.70;;;;;;5005257;28;45481;-59
2022/12/07 05:59:52;;;;;;;0.93;0.82;;;16.90;47.70;;;;;;4989502;28;45491;-59
2022/12/07 06:02:18;;;;;;;1.00;0.90;;;16.80;47.60;;;;;;4971588;28;46687;-59
2022/12/07 06:04:45;;;;;;;0.87;0.83;;;16.80;47.70;;;;;;4989469;28;45428;-59
2022/12/07 06:07:12;;;;;;;0.80;0.80;;;16.80;47.70;;;;;;4988684;28;45585;-59
2022/12/07 06:09:37;;;;;;;1.00;0.90;;;16.80;47.70;;;;;;5000439;28;45402;-58
2022/12/07 06:14:48;;;;;;;0.80;0.80;;;16.80;47.70;;;;;;4992617;28;45341;-58
2022/12/07 06:17:13;;;;;;;1.00;0.90;;;16.80;47.70;;;;;;4981884;28;45262;-58
2022/12/07 06:19:39;;;;;;;0.90;0.90;;;16.80;47.70;;;;;;4987832;28;45381;-60
2022/12/07 06:22:05;;;;;;;1.07;0.97;;;16.80;47.70;;;;;;4990006;28;46028;-58
2022/12/07 06:24:31;;;;;;;1.08;0.98;;;16.80;48.30;;;;;;4977791;28;45282;-58
2022/12/07 06:26:57;;;;;;;0.82;0.80;;;16.70;47.70;;;;;;4973311;28;45474;-59
2022/12/07 06:29:22;;;;;;;1.00;0.90;;;16.70;47.70;;;;;;4988454;28;45602;-59
2022/12/07 06:31:48;;;;;;;0.93;0.90;;;16.70;47.70;;;;;;5001359;28;45839;-60
2022/12/07 06:34:16;;;;;;;0.83;0.80;;;16.70;47.70;;;;;;4983150;28;45391;-58
2022/12/07 06:36:41;;;;;;;1.05;0.90;;;16.70;47.70;;;;;;4967661;28;45363;-59
2022/12/07 06:39:08;;;;;;;0.80;0.80;;;16.70;47.70;;;;;;4973471;28;45462;-59
2022/12/07 06:41:35;;;;;;;0.82;0.82;;;16.70;47.70;;;;;;4990567;28;45914;-56
2022/12/07 06:44:00;;;;;;;1.17;1.02;;;16.70;47.70;;;;;;4985332;28;44701;-59
2022/12/07 06:46:26;;;;;;;0.90;0.90;;;16.70;47.70;;;;;;5009584;28;45000;-58
2022/12/07 06:48:51;;;;;;;0.83;0.83;;;16.70;47.70;;;;;;5001490;28;45338;-59
2022/12/07 06:51:17;;;;;;;1.40;1.00;;;16.70;47.70;;;;;;5008276;28;45267;-59
2022/12/07 06:53:42;;;;;;;0.90;0.90;;;16.70;47.80;;;;;;4988903;28;45378;-60
2022/12/07 06:56:08;;;;;;;0.97;0.87;;;16.70;47.80;;;;;;5003419;28;44960;-59
2022/12/07 06:58:33;;;;;;;0.70;0.70;;;16.60;47.70;;;;;;5010048;28;45355;-60
2022/12/07 07:01:19;;;;;;;0.80;0.80;;;16.60;47.70;;;;;;4983027;28;46656;-58
2022/12/07 07:03:45;;;;;;;0.80;0.80;;;16.60;47.70;;;;;;5004723;28;45468;-58
2022/12/07 07:06:11;;;;;;;2.58;1.00;;;16.60;47.80;;;;;;4976122;28;45477;-57
2022/12/07 07:08:37;;;;;;;2.00;0.90;;;16.60;47.80;;;;;;4994523;28;45314;-57
2022/12/07 07:11:03;;;;;;;4.18;1.30;;;16.60;47.70;;;;;;4991746;28;45988;-59
2022/12/07 07:13:28;;;;;;;0.90;0.80;;;16.40;48.30;;;;;;4985785;28;45455;-60
2022/12/07 07:15:54;;;;;;;0.88;0.85;;;16.20;48.70;;;;;;5006702;28;45321;-61
2022/12/07 07:18:20;;;;;;;0.80;0.70;;;16.20;48.80;;;;;;5008756;28;45105;-60
2022/12/07 07:20:45;;;;;;;0.75;0.75;;;16.30;48.60;;;;;;4998546;28;46533;-60
2022/12/07 07:23:11;;;;;;;0.73;0.70;;;16.50;48.40;;;;;;4990781;28;45175;-61
2022/12/07 07:25:36;;;;;;;1.00;0.70;;;16.60;48.20;;;;;;5006776;28;45172;-57
2022/12/07 07:28:02;;;;;;;0.70;0.60;;;16.80;48.00;;;;;;5008999;28;45433;-62
2022/12/07 07:30:27;;;;;;;0.65;0.60;;;16.90;47.80;;;;;;5012470;28;45522;-58
2022/12/07 07:33:00;;;;;;;2.72;0.77;;;17.10;47.70;;;;;;4987995;28;45878;-59
2022/12/07 07:35:26;;;;;;;0.70;0.60;;;17.30;47.60;;;;;;4997983;28;45159;-59
2022/12/07 07:37:52;;;;;;;1.10;0.80;;;17.40;47.40;;;;;;4976151;28;45590;-58
2022/12/07 07:40:17;;;;;;;0.52;0.50;;;17.50;47.20;;;;;;5003911;28;45484;-59
2022/12/07 07:42:43;;;;;;;0.80;0.60;;;17.70;47.10;;;;;;4990041;28;45582;-57
2022/12/07 07:45:09;;;;;;;1.85;0.70;;;17.80;47.00;;;;;;4998690;28;45332;-58
2022/12/07 07:47:34;;;;;;;0.80;0.68;;;17.90;46.90;;;;;;4988815;28;45305;-59
2022/12/07 07:50:00;;;;;;;0.80;0.70;;;18.00;46.80;;;;;;4971232;28;45613;-58
2022/12/07 07:52:26;;;;;;;0.60;0.55;;;18.20;46.70;;;;;;4983962;28;44967;-60
2022/12/07 07:54:51;;;;;;;0.88;0.60;;;18.30;46.60;;;;;;5001376;28;45501;-59
2022/12/07 07:57:17;;;;;;;0.60;0.60;;;18.40;46.40;;;;;;5005949;28;45623;-59
2022/12/07 07:59:43;;;;;;;0.68;0.60;;;18.50;46.40;;;;;;4988179;28;45231;-58
2022/12/07 08:02:16;;;;;;;1.40;0.60;;;18.60;46.30;;;;;;4986784;28;45433;-58
2022/12/07 08:04:42;;;;;;;1.30;0.93;;;18.60;46.30;;;;;;5002923;28;45268;-59
2022/12/07 08:07:08;;;;;;;1.85;0.52;;;18.60;46.40;;;;;;4986390;28;44777;-58
2022/12/07 08:09:33;;;;;;;2.15;0.60;;;18.60;46.40;;;;;;5008959;28;45354;-59
2022/12/07 08:11:59;;;;;;;0.63;0.60;;;18.80;46.40;;;;;;4988230;28;45349;-59
2022/12/07 08:14:25;;;;;;;0.60;0.60;;;18.90;46.30;;;;;;4990556;28;45196;-60
2022/12/07 08:16:52;;;;;;;0.60;0.50;;;19.00;46.20;;;;;;4984851;28;44791;-60
2022/12/07 08:19:17;;;;;;;0.60;0.50;;;19.10;46.00;;;;;;4980893;28;46338;-60
2022/12/07 08:21:43;;;;;;;0.90;0.60;;;19.30;45.90;;;;;;4990492;28;45348;-60
2022/12/07 08:24:08;;;;;;;0.60;0.57;;;19.40;45.80;;;;;;5001362;28;45508;-58
2022/12/07 08:26:34;;;;;;;5.15;0.80;;;19.50;45.60;;;;;;5000115;28;45130;-59
2022/12/07 08:28:59;;;;;;;1.40;0.75;;;19.70;45.50;;;;;;4967085;28;45885;-60
2022/12/07 08:31:25;;;;;;;0.70;0.60;;;19.80;45.30;;;;;;4993438;28;45290;-59
2022/12/07 08:33:51;;;;;;;0.90;0.55;;;19.90;45.20;;;;;;5000275;28;45206;-60
2022/12/07 08:36:17;;;;;;;0.82;0.63;;;20.00;45.20;;;;;;4965284;28;45111;-60
2022/12/07 08:38:42;;;;;;;0.63;0.52;;;20.10;45.00;;;;;;4985919;28;46171;-58
2022/12/07 08:41:08;;;;;;;0.80;0.73;;;20.30;44.90;;;;;;4985732;28;45582;-60
2022/12/07 08:43:34;;;;;;;1.05;0.57;;;20.30;44.80;;;;;;4985247;28;45504;-60
2022/12/07 08:46:23;;;;;;;0.70;0.52;;;20.40;44.90;;;;;;4986178;28;44871;-59
2022/12/07 08:49:03;;;;;;;0.50;0.50;;;20.60;44.40;;;;;;4980107;28;45418;-58
2022/12/07 08:51:28;;;;;;;0.75;0.60;;;20.70;44.30;;;;;;4998383;28;45675;-59
2022/12/07 08:53:54;;;;;;;0.68;0.68;;;20.70;44.40;;;;;;5010459;28;45446;-60
2022/12/07 08:56:19;;;;;;;0.65;0.40;;;20.70;44.50;;;;;;5009150;28;45555;-61
2022/12/07 08:58:45;;;;;;;0.57;0.55;;;20.70;44.50;;;;;;4987552;28;46294;-59
2022/12/07 09:01:10;;;;;;;0.82;0.70;;;20.70;44.60;;;;;;4962532;28;45623;-57
2022/12/07 09:03:36;;;;;;;0.65;0.65;;;20.70;44.60;;;;;;5006257;28;45498;-58
2022/12/07 09:06:01;;;;;;;0.80;0.70;;;20.80;44.50;;;;;;5015272;28;45327;-58
2022/12/07 09:08:31;;;;;;;2.67;0.55;;;21.00;44.40;;;;;;4990916;28;47138;-59
2022/12/07 09:10:56;;;;;;;0.70;0.50;;;21.00;44.20;;;;;;4954313;28;45390;-58
2022/12/07 09:13:22;;;;;;;0.45;0.45;;;21.20;44.10;;;;;;4988750;28;45302;-57
2022/12/07 09:15:48;;;;;;;0.60;0.60;;;21.30;44.00;;;;;;4990988;28;44917;-58
2022/12/07 09:18:13;;;;;;;0.57;0.50;;;21.40;43.90;;;;;;5003352;28;46422;-57
2022/12/07 09:20:39;;;;;;;1.40;0.55;;;21.50;43.80;;;;;;4987145;28;45528;-58
2022/12/07 09:23:07;;;;;;;0.60;0.60;;;21.60;43.60;;;;;;4992812;28;45259;-58
2022/12/07 09:25:34;;;;;;;0.40;0.40;;;21.70;43.50;;;;;;5015594;28;45579;-59
2022/12/07 09:27:59;;;;;;;0.73;0.55;;;21.80;43.40;;;;;;4987658;28;45618;-61
2022/12/07 09:30:26;;;;;;;0.70;0.52;;;21.90;43.30;;;;;;4987803;28;45045;-59
2022/12/07 09:32:53;;;;;;;0.63;0.50;;;21.90;43.20;;;;;;4992808;28;45493;-58
2022/12/07 09:35:19;;;;;;;0.40;0.40;;;22.00;43.20;;;;;;4995232;28;45442;-57
2022/12/07 09:37:45;;;;;;;0.50;0.50;;;22.00;43.20;;;;;;4991683;28;45474;-59
2022/12/07 09:40:10;;;;;;;0.43;0.40;;;22.00;43.20;;;;;;5007751;28;45198;-58
2022/12/07 09:42:39;;;;;;;0.95;0.65;;;22.00;43.30;;;;;;4972814;28;45132;-60
2022/12/07 09:45:06;;;;;;;0.55;0.55;;;22.00;43.40;;;;;;4988135;28;45532;-57
2022/12/07 09:47:33;;;;;;;0.60;0.60;;;22.00;43.40;;;;;;4989280;28;46547;-60
2022/12/07 09:50:04;;;;;;;0.32;0.32;;;22.10;43.20;;;;;;4984818;28;45297;-60
2022/12/07 09:52:29;;;;;;;0.40;0.40;;;22.20;43.10;;;;;;5005112;28;45389;-59
2022/12/07 09:54:55;;;;;;;0.93;0.60;;;22.30;43.00;;;;;;4990043;28;45459;-60
2022/12/07 09:57:30;;;;;;;0.93;0.52;;;22.40;43.00;;;;;;4988552;28;45604;-60
2022/12/07 10:00:04;;;;;;;1.60;0.60;;;22.40;42.80;;;;;;4986421;28;45235;-60
2022/12/07 10:02:36;;;;;;;0.50;0.50;;;22.50;42.80;;;;;;4990939;28;45026;-59
2022/12/07 10:05:03;;;;;;;0.82;0.55;;;22.60;42.70;;;;;;5006931;28;45846;-61
2022/12/07 10:07:29;;;;;;;1.33;0.63;;;22.60;42.80;;;;;;4992513;28;46171;-60
2022/12/07 10:09:55;;;;;;;1.05;0.55;;;22.70;42.70;;;;;;4992682;28;45991;-59
2022/12/07 10:12:20;;;;;;;0.50;0.45;;;22.70;42.60;;;;;;4988835;28;45455;-59
2022/12/07 10:15:03;;;;;;;0.43;0.43;;;22.80;42.60;;;;;;4983224;28;45495;-59
2022/12/07 10:17:43;;;;;;;0.55;0.43;;;22.90;42.40;;;;;;4998211;28;45606;-59
2022/12/07 10:20:08;;;;;;;0.35;0.35;;;22.90;42.50;;;;;;4997663;28;45145;-58
2022/12/07 10:22:34;;;;;;;0.65;0.47;;;23.00;42.50;;;;;;4988399;28;45225;-58
2022/12/07 10:25:08;;;;;;;0.70;0.40;;;23.00;42.40;;;;;;4981421;28;45175;-58
2022/12/07 10:27:33;;;;;;;0.43;0.40;;;23.10;42.20;;;;;;4997165;28;45481;-57
2022/12/07 10:29:59;;;;;;;0.50;0.50;;;23.10;42.30;;;;;;4985028;28;44789;-59
2022/12/07 10:32:31;;;;;;;0.63;0.63;;;23.20;42.30;;;;;;4990849;28;44821;-58
2022/12/07 10:35:42;;;;;;;0.35;0.35;;;23.20;42.20;;;;;;4978510;28;45557;-59
2022/12/07 10:38:08;;;;;;;0.55;0.32;;;23.30;41.70;;;;;;5000307;28;45486;-58
2022/12/07 10:40:35;;;;;;;0.93;0.43;;;23.30;42.20;;;;;;4961623;28;44921;-60
2022/12/07 10:43:13;;;;;;;0.80;0.68;;;23.30;42.00;;;;;;4987393;28;45018;-59
2022/12/07 10:46:07;;;;;;;1.17;0.40;;;23.20;42.00;;;;;;4989100;28;45318;-59
2022/12/07 10:48:58;;;;;;;0.30;0.30;;;23.10;41.90;;;;;;4999237;28;45359;-60
2022/12/07 10:51:37;;;;;;;1.58;0.40;;;23.10;42.00;;;;;;4988956;28;45116;-59
2022/12/07 10:54:07;;;;;;;2.40;0.47;;;23.20;42.20;;;;;;4971460;28;45030;-60
2022/12/07 10:57:05;;;;;;;0.32;0.32;;;23.30;42.30;;;;;;4995963;28;45271;-60
2022/12/07 10:59:49;;;;;;;0.60;0.60;;;23.30;41.70;;;;;;4993952;28;45477;-59
2022/12/07 11:02:33;;;;;;;0.68;0.45;;;23.40;42.10;;;;;;4984738;28;45708;-58
2022/12/07 11:05:08;;;;;;;0.40;0.40;;;23.50;41.80;;;;;;5001810;28;45151;-61
2022/12/07 11:07:56;;;;;;;0.57;0.57;;;23.50;42.00;;;;;;5007435;28;45313;-60
2022/12/07 11:10:23;;;;;;;1.02;0.43;;;23.50;41.50;;;;;;4985625;28;46990;-58
2022/12/07 11:13:16;;;;;;;2.50;0.50;;;23.50;41.90;;;;;;4993470;28;44733;-57
2022/12/07 11:16:05;;;;;;;0.47;0.43;;;23.60;41.60;;;;;;5011234;28;45270;-58
2022/12/07 11:18:56;;;;;;;0.40;0.40;;;23.60;41.60;;;;;;4986194;28;45220;-58
2022/12/07 11:21:58;;;;;;;0.45;0.38;;;23.70;41.40;;;;;;5006264;28;45095;-57
2022/12/07 11:24:33;;;;;;;0.32;0.30;;;23.70;41.20;;;;;;4954137;28;45320;-59
2022/12/07 11:27:15;;;;;;;0.47;0.45;;;23.70;41.50;;;;;;4995729;28;45157;-58
2022/12/07 11:29:59;;;;;;;0.95;0.35;;;23.80;41.40;;;;;;4981132;28;45618;-59
2022/12/07 11:32:43;;;;;;;;;;;23.80;41.30;;;;;;4996973;28;46380;-59
2022/12/07 11:35:43;;;;;;;0.95;0.30;;;23.80;41.00;;;;;;5008771;28;45340;-58
2022/12/07 11:38:17;;;;;;;0.90;0.25;;;23.90;41.20;;;;;;5008874;28;44921;-58
2022/12/07 11:40:50;;;;;;;0.98;0.40;;;23.90;41.30;;;;;;5010157;28;44842;-58
2022/12/07 11:43:25;;;;;;;0.35;0.28;;;24.00;41.20;;;;;;4983491;28;47072;-59
2022/12/07 11:46:06;;;;;;;0.60;0.40;;;24.00;41.20;;;;;;4978184;28;45246;-58
2022/12/07 11:48:49;;;;;;;0.55;0.45;;;24.00;40.90;;;;;;4976902;28;45159;-59
2022/12/07 11:51:14;;;;;;;0.38;0.32;;;24.10;41.10;;;;;;4989870;28;45511;-58
2022/12/07 11:53:52;;;;;;;0.30;0.30;;;24.10;41.30;;;;;;4990356;28;45620;-58
2022/12/07 11:56:20;;;;;;;0.30;0.28;;;24.10;41.30;;;;;;4991722;28;45010;-58
2022/12/07 11:58:49;;;;;;;0.47;0.47;;;24.10;41.20;;;;;;4995017;28;45166;-58
2022/12/07 12:01:20;;;;;;;0.38;0.38;;;24.10;41.10;;;;;;4992399;28;45558;-58
2022/12/07 12:03:47;;;;;;;0.75;0.45;;;24.10;41.20;;;;;;4982562;28;45640;-59
2022/12/07 12:06:12;;;;;;;1.23;0.43;;;24.10;41.10;;;;;;4960068;28;45557;-60
2022/12/07 12:08:41;;;;;;;0.63;0.43;;;24.10;41.10;;;;;;4979636;28;45582;-59
2022/12/07 12:11:32;;;;;;;0.50;0.50;;;24.00;41.20;;;;;;4957965;28;44649;-59
2022/12/07 12:14:35;;;;;;;0.75;0.43;;;23.90;41.00;;;;;;5002139;28;45462;-60
2022/12/07 12:17:23;;;;;;;1.20;0.75;;;24.00;41.20;;;;;;4991243;28;45433;-59
2022/12/07 12:20:44;;;;;;;1.95;0.45;;;24.00;41.40;;;;;;4993276;28;45331;-60
2022/12/07 12:23:14;;;;;;;0.50;0.40;;;24.10;41.00;;;;;;4947235;28;45119;-59
2022/12/07 12:25:47;;;;;;;0.55;0.47;;;24.10;41.20;;;;;;4995839;28;45405;-60
2022/12/07 12:28:32;;;;;;;0.43;0.43;;;24.20;41.10;;;;;;4975625;28;45749;-59
2022/12/07 12:31:29;;;;;;;0.22;0.22;;;24.20;40.80;;;;;;4992573;28;45175;-58
2022/12/07 12:34:00;;;;;;;0.75;0.30;;;24.30;40.70;;;;;;4991159;28;45341;-59
2022/12/07 12:36:34;;;;;;;0.47;0.47;;;24.40;41.00;;;;;;4989518;28;45336;-58
2022/12/07 12:39:10;;;;;;;0.63;0.40;;;24.40;40.90;;;;;;5009067;28;45157;-58
2022/12/07 12:41:37;;;;;;;0.50;0.40;;;24.40;40.70;;;;;;5005530;28;44877;-56
2022/12/07 12:44:14;;;;;;;0.40;0.35;;;24.40;40.90;;;;;;4999859;28;45245;-59
2022/12/07 12:46:59;;;;;;;0.60;0.30;;;24.50;40.60;;;;;;4999019;28;45427;-59
2022/12/07 12:49:27;;;;;;;0.25;0.25;;;24.50;40.60;;;;;;5008081;28;45290;-57
2022/12/07 12:51:56;;;;;;;1.40;0.35;;;24.60;40.80;;;;;;5007366;28;45228;-58
2022/12/07 12:54:32;;;;;;;0.70;0.40;;;24.60;40.80;;;;;;4971405;28;45393;-59
2022/12/07 12:57:23;;;;;;;0.45;0.43;;;24.70;40.60;;;;;;4988603;28;45440;-59
2022/12/07 12:59:52;;;;;;;0.40;0.40;;;24.70;40.40;;;;;;4983879;28;45338;-58
2022/12/07 13:02:28;;;;;;;0.47;0.43;;;24.80;40.60;;;;;;5003397;28;45191;-61
2022/12/07 13:05:03;;;;;;;0.80;0.45;;;24.80;40.60;;;;;;4992728;28;45219;-60
2022/12/07 13:07:47;;;;;;;0.73;0.40;;;24.80;40.60;;;;;;5004662;28;46416;-59
2022/12/07 13:10:28;;;;;;;0.77;0.50;;;24.90;40.40;;;;;;4998657;28;44951;-60
2022/12/07 13:13:13;;;;;;;1.85;0.40;;;24.90;40.40;;;;;;4999800;28;45295;-57
2022/12/07 13:15:46;;;;;;;0.70;0.30;;;24.80;40.50;;;;;;5000466;28;45578;-60
2022/12/07 13:18:30;;;;;;;0.97;0.43;;;24.90;40.50;;;;;;5004980;28;45420;-59
2022/12/07 13:20:56;;;;;;;0.60;0.60;;;24.80;40.20;;;;;;4987147;28;45219;-60
2022/12/07 13:23:37;;;;;;;0.40;0.40;;;24.80;40.60;;;;;;5008008;28;44923;-60
2022/12/07 13:26:12;;;;;;;2.05;0.40;;;24.80;40.60;;;;;;4997568;28;44740;-62
2022/12/07 13:28:40;;;;;;;0.80;0.40;;;24.80;40.60;;;;;;4986598;28;46197;-61
2022/12/07 13:31:18;;;;;;;0.50;0.40;;;24.80;40.60;;;;;;4999492;28;45473;-61
2022/12/07 13:33:45;;;;;;;0.50;0.50;;;24.80;40.60;;;;;;5005345;28;45019;-61
2022/12/07 13:36:22;;;;;;;0.90;0.43;;;24.80;40.60;;;;;;4986342;28;45195;-60
2022/12/07 13:38:56;;;;;;;0.70;0.57;;;24.80;40.60;;;;;;4974531;28;45485;-60
2022/12/07 13:41:23;;;;;;;0.82;0.40;;;24.70;40.60;;;;;;5000510;28;45237;-61
2022/12/07 13:43:51;;;;;;;0.40;0.40;;;24.70;40.80;;;;;;4990587;28;45312;-60
2022/12/07 13:46:18;;;;;;;1.55;0.38;;;24.70;41.30;;;;;;4981588;28;45382;-61
2022/12/07 13:48:46;;;;;;;0.75;0.45;;;24.70;40.80;;;;;;4988106;28;45621;-61
2022/12/07 13:51:25;;;;;;;0.55;0.40;;;24.80;40.90;;;;;;4988241;28;45210;-61
2022/12/07 13:53:56;;;;;;;0.98;0.60;;;24.80;40.60;;;;;;5007430;28;44733;-60
2022/12/07 13:56:33;;;;;;;2.97;0.38;;;24.80;40.70;;;;;;4973871;28;45439;-59
2022/12/07 13:58:59;;;;;;;0.90;0.60;;;24.80;40.70;;;;;;4989662;28;45235;-60
2022/12/07 14:01:24;;;;;;;0.73;0.40;;;24.90;40.60;;;;;;4982612;28;45485;-59
2022/12/07 14:03:50;;;;;;;0.60;0.40;;;24.90;40.60;;;;;;4971691;28;44836;-58
2022/12/07 14:06:20;;;;;;;4.13;0.40;;;25.00;40.70;;;;;;4981969;28;45950;-60
2022/12/07 14:08:45;;;;;;;1.48;0.47;;;25.00;40.60;;;;;;5000737;28;46331;-60
2022/12/07 14:11:16;;;;;;;0.65;0.40;;;25.10;40.60;;;;;;5004392;28;45685;-59
2022/12/07 14:14:00;;;;;;;1.05;0.50;;;25.10;40.60;;;;;;4998244;28;45425;-61
2022/12/07 14:16:30;;;;;;;;;;;25.10;40.40;;;;;;4977458;28;45288;-60
2022/12/07 14:18:57;;;;;;;0.93;0.55;;;25.10;40.30;;;;;;5008467;28;45455;-60
2022/12/07 14:21:24;;;;;;;1.10;0.40;;;25.10;40.60;;;;;;4989519;28;45207;-60
2022/12/07 14:24:11;;;;;;;0.70;0.30;;;25.10;40.50;;;;;;4993887;28;44640;-59
2022/12/07 14:26:38;;;;;;;0.45;0.40;;;25.10;40.20;;;;;;4974740;28;45048;-61
2022/12/07 14:29:33;;;;;;;1.40;0.60;;;25.10;40.50;;;;;;4974518;28;45260;-60
2022/12/07 14:32:08;;;;;;;0.63;0.45;;;25.10;40.30;;;;;;5003257;28;45550;-59
2022/12/07 14:34:33;;;;;;;3.78;0.50;;;25.00;40.50;;;;;;4962757;28;45425;-59
2022/12/07 14:36:59;;;;;;;2.10;0.55;;;25.00;40.60;;;;;;5004714;28;45395;-60
2022/12/07 14:39:24;;;;;;;0.60;0.47;;;25.00;40.70;;;;;;5015061;28;45517;-59
2022/12/07 14:41:52;;;;;;;0.60;0.57;;;24.90;40.60;;;;;;5007385;28;44672;-59
2022/12/07 14:44:22;;;;;;;1.55;0.63;;;24.90;40.70;;;;;;5002394;28;45031;-57
2022/12/07 14:46:48;;;;;;;0.63;0.50;;;24.90;40.60;;;;;;4986443;28;45287;-59
2022/12/07 14:49:14;;;;;;;0.80;0.40;;;24.90;40.80;;;;;;4987972;28;46985;-59
2022/12/07 14:51:40;;;;;;;0.57;0.43;;;24.80;40.80;;;;;;4994274;28;45575;-59
2022/12/07 14:54:17;;;;;;;0.70;0.45;;;24.70;41.00;;;;;;4972282;28;45452;-59
2022/12/07 14:56:44;;;;;;;2.50;0.38;;;24.60;41.00;;;;;;4981077;28;45253;-59
2022/12/07 14:59:10;;;;;;;3.13;0.40;;;24.50;41.40;;;;;;4992228;28;45216;-59
2022/12/07 15:01:36;;;;;;;5.97;0.77;;;24.40;41.40;;;;;;5006204;28;44969;-60
2022/12/07 15:04:02;;;;;;;0.85;0.50;;;24.50;41.40;;;;;;4984691;28;45374;-60
2022/12/07 15:06:27;;;;;;;0.40;0.40;;;24.60;41.30;;;;;;5003246;28;45430;-59
2022/12/07 15:08:54;;;;;;;0.77;0.43;;;24.60;41.20;;;;;;5009850;28;45260;-61
2022/12/07 15:11:20;;;;;;;0.90;0.43;;;24.70;41.10;;;;;;5009913;28;45207;-60
2022/12/07 15:16:29;;;;;;;0.93;0.45;;;24.80;41.00;;;;;;4993372;28;45262;-61
2022/12/07 15:18:55;;;;;;;0.90;0.45;;;24.80;41.00;;;;;;4995550;28;46258;-60
2022/12/07 15:21:20;;;;;;;0.32;0.32;;;24.90;40.90;;;;;;5003346;28;45154;-60
2022/12/07 15:23:46;;;;;;;3.17;0.60;;;24.90;40.80;;;;;;5008504;28;45346;-59
2022/12/07 15:26:13;;;;;;;0.30;0.28;;;25.00;40.80;;;;;;5013133;28;44818;-60
2022/12/07 15:28:39;;;;;;;1.25;0.70;;;25.00;40.80;;;;;;4985979;28;45502;-60
2022/12/07 15:31:07;;;;;;;1.75;0.50;;;25.00;40.70;;;;;;5008344;28;45365;-59
2022/12/07 15:33:33;;;;;;;0.60;0.50;;;25.00;40.70;;;;;;4963068;28;44758;-58
2022/12/07 15:35:59;;;;;;;0.82;0.52;;;25.10;40.80;;;;;;5004448;28;45449;-59
2022/12/07 15:38:26;;;;;;;0.40;0.40;;;25.10;40.70;;;;;;5005548;28;45509;-58
2022/12/07 15:40:52;;;;;;;2.10;0.50;;;25.00;40.70;;;;;;5009783;28;45260;-59
2022/12/07 15:46:02;;;;;;;3.20;0.73;;;25.10;40.70;;;;;;5010475;28;45630;-59
2022/12/07 15:48:27;;;;;;;1.63;0.80;;;25.00;40.70;;;;;;4979319;28;44970;-58
2022/12/07 15:50:53;;;;;;;0.73;0.47;;;24.90;40.90;;;;;;4975621;28;44827;-60
2022/12/07 15:53:18;;;;;;;3.10;0.60;;;24.90;40.90;;;;;;4993479;28;45242;-59
2022/12/07 15:55:44;;;;;;;1.00;0.50;;;24.90;41.00;;;;;;5009446;28;45254;-62
2022/12/07 15:58:09;;;;;;;3.28;0.47;;;24.90;41.00;;;;;;5001202;28;46538;-59
2022/12/07 16:00:35;;;;;;;1.30;0.60;;;24.80;41.00;;;;;;5008850;28;45583;-59
2022/12/07 16:03:00;;;;;;;0.88;0.50;;;24.80;41.10;;;;;;5011544;28;45351;-59
2022/12/07 16:05:26;;;;;;;2.25;0.60;;;24.70;41.10;;;;;;4995637;28;45563;-60
2022/12/07 16:07:51;;;;;;;0.77;0.43;;;24.60;41.30;;;;;;5012668;28;45510;-60
2022/12/07 16:10:17;;;;;;;1.02;0.63;;;24.60;41.40;;;;;;5009237;28;45270;-62
2022/12/07 16:12:42;;;;;;;1.38;0.50;;;24.60;41.40;;;;;;5007776;28;45386;-60
2022/12/07 16:15:08;;;;;;;1.45;0.50;;;24.70;41.40;;;;;;5006151;28;44981;-59
2022/12/07 16:17:34;;;;;;;0.65;0.47;;;24.80;41.30;;;;;;5009318;28;46942;-60
2022/12/07 16:19:59;;;;;;;0.32;0.30;;;24.80;41.30;;;;;;4993317;28;45191;-60
2022/12/07 16:22:25;;;;;;;0.40;0.40;;;24.80;41.20;;;;;;5013236;28;45318;-58
2022/12/07 16:24:50;;;;;;;0.82;0.45;;;24.90;41.10;;;;;;4996130;28;45251;-61
2022/12/07 16:27:16;;;;;;;0.60;0.40;;;25.00;41.10;;;;;;4997428;28;46162;-60
2022/12/07 16:29:41;;;;;;;1.25;0.40;;;25.00;41.00;;;;;;5007344;28;44751;-60
2022/12/07 16:32:07;;;;;;;0.63;0.57;;;25.10;41.00;;;;;;5008877;28;45474;-59
2022/12/07 16:34:33;;;;;;;0.75;0.50;;;25.10;40.90;;;;;;5012924;28;45268;-59
2022/12/07 16:36:58;;;;;;;0.68;0.52;;;25.10;40.90;;;;;;5012517;28;46162;-61
2022/12/07 16:39:24;;;;;;;8.80;0.80;;;25.20;40.80;;;;;;5012520;28;45449;-61
2022/12/07 16:41:50;;;;;;;1.00;0.55;;;25.20;40.90;;;;;;5007437;28;45200;-60
2022/12/07 16:44:15;;;;;;;3.67;0.60;;;25.20;40.80;;;;;;4995813;28;45353;-58
2022/12/07 16:46:41;;;;;;;1.55;0.50;;;25.20;40.80;;;;;;4989925;28;45625;-59
2022/12/07 16:49:08;;;;;;;1.60;0.70;;;25.20;40.80;;;;;;5015005;28;44704;-59
2022/12/07 16:51:36;;;;;;;2.38;0.50;;;25.10;40.90;;;;;;4993805;28;44766;-59
2022/12/07 16:54:02;;;;;;;1.85;0.60;;;25.00;41.00;;;;;;5005137;28;45257;-60
2022/12/07 16:56:28;;;;;;;1.48;0.60;;;24.90;41.00;;;;;;5010768;28;47520;-59
2022/12/07 16:58:54;;;;;;;0.73;0.57;;;24.80;41.30;;;;;;4988676;28;44913;-60
2022/12/07 17:01:22;;;;;;;1.95;0.60;;;24.60;41.50;;;;;;5008034;28;45601;-61
2022/12/07 17:03:47;;;;;;;0.60;0.40;;;24.40;41.60;;;;;;4975220;28;45608;-60
2022/12/07 17:06:17;;;;;;;1.83;0.60;;;24.40;41.90;;;;;;4982131;28;45773;-60
2022/12/07 17:08:43;;;;;;;1.77;0.70;;;24.30;42.00;;;;;;5002754;28;45462;-60
2022/12/07 17:11:22;;;;;;;0.80;0.50;;;24.10;42.10;;;;;;5007109;28;45119;-60
2022/12/07 17:16:32;;;;;;;0.50;0.50;;;24.00;43.00;;;;;;4999732;28;45439;-59